sensor_id;sensor_type;location;lat;lon;timestamp;P1;durP1;ratioP1;P2;durP2;ratioP2
73940;SDS011;62294;48.554;10.202;2022-10-16T00:00:55;2.35;;;1.85;;
73940;SDS011;62294;48.554;10.202;2022-10-16T00:03:21;3.67;;;2.20;;
73940;SDS011;62294;48.554;10.202;2022-10-16T00:05:54;3.80;;;2.38;;
73940;SDS011;62294;48.554;10.202;2022-10-16T00:08:26;4.30;;;2.17;;
73940;SDS011;62294;48.554;10.202;2022-10-16T00:10:58;3.50;;;2.40;;
73940;SDS011;62294;48.554;10.202;2022-10-16T00:13:30;5.60;;;2.03;;
73940;SDS011;62294;48.554;10.202;2022-10-16T00:15:57;4.95;;;2.10;;
73940;SDS011;62294;48.554;10.202;2022-10-16T00:18:25;3.13;;;2.10;;
73940;SDS011;62294;48.554;10.202;2022-10-16T00:20:53;3.67;;;1.67;;
73940;SDS011;62294;48.554;10.202;2022-10-16T00:23:21;3.00;;;1.77;;
73940;SDS011;62294;48.554;10.202;2022-10-16T00:25:54;5.53;;;2.03;;
73940;SDS011;62294;48.554;10.202;2022-10-16T00:28:22;2.17;;;1.80;;
73940;SDS011;62294;48.554;10.202;2022-10-16T00:30:50;4.00;;;2.00;;
73940;SDS011;62294;48.554;10.202;2022-10-16T00:33:17;3.25;;;2.00;;
73940;SDS011;62294;48.554;10.202;2022-10-16T00:35:43;4.93;;;2.08;;
73940;SDS011;62294;48.554;10.202;2022-10-16T00:38:10;3.45;;;2.42;;
73940;SDS011;62294;48.554;10.202;2022-10-16T00:40:37;4.30;;;2.05;;
73940;SDS011;62294;48.554;10.202;2022-10-16T00:43:09;4.03;;;1.98;;
73940;SDS011;62294;48.554;10.202;2022-10-16T00:45:40;5.40;;;2.30;;
73940;SDS011;62294;48.554;10.202;2022-10-16T00:48:08;2.97;;;1.98;;
73940;SDS011;62294;48.554;10.202;2022-10-16T00:50:38;5.45;;;3.05;;
73940;SDS011;62294;48.554;10.202;2022-10-16T00:53:08;3.78;;;2.08;;
73940;SDS011;62294;48.554;10.202;2022-10-16T00:55:35;3.67;;;2.35;;
73940;SDS011;62294;48.554;10.202;2022-10-16T00:58:07;3.55;;;1.80;;
73940;SDS011;62294;48.554;10.202;2022-10-16T01:00:34;3.38;;;1.88;;
73940;SDS011;62294;48.554;10.202;2022-10-16T01:03:01;3.17;;;1.92;;
73940;SDS011;62294;48.554;10.202;2022-10-16T01:05:33;6.43;;;2.22;;
73940;SDS011;62294;48.554;10.202;2022-10-16T01:08:17;4.65;;;2.22;;
73940;SDS011;62294;48.554;10.202;2022-10-16T01:13:38;3.72;;;1.92;;
73940;SDS011;62294;48.554;10.202;2022-10-16T01:16:28;3.85;;;2.00;;
73940;SDS011;62294;48.554;10.202;2022-10-16T01:22:09;3.25;;;1.80;;
73940;SDS011;62294;48.554;10.202;2022-10-16T01:24:39;3.67;;;2.60;;
73940;SDS011;62294;48.554;10.202;2022-10-16T01:27:28;5.80;;;2.10;;
73940;SDS011;62294;48.554;10.202;2022-10-16T01:30:17;4.05;;;2.35;;
73940;SDS011;62294;48.554;10.202;2022-10-16T01:32:50;4.47;;;2.10;;
73940;SDS011;62294;48.554;10.202;2022-10-16T01:35:29;3.15;;;1.83;;
73940;SDS011;62294;48.554;10.202;2022-10-16T01:38:06;3.60;;;2.28;;
73940;SDS011;62294;48.554;10.202;2022-10-16T01:40:41;4.43;;;1.80;;
73940;SDS011;62294;48.554;10.202;2022-10-16T01:43:14;2.33;;;1.80;;
73940;SDS011;62294;48.554;10.202;2022-10-16T01:45:44;2.63;;;1.85;;
73940;SDS011;62294;48.554;10.202;2022-10-16T01:48:13;4.47;;;1.60;;
73940;SDS011;62294;48.554;10.202;2022-10-16T01:50:43;4.50;;;1.65;;
73940;SDS011;62294;48.554;10.202;2022-10-16T01:53:14;3.85;;;1.75;;
73940;SDS011;62294;48.554;10.202;2022-10-16T01:55:43;3.15;;;1.80;;
73940;SDS011;62294;48.554;10.202;2022-10-16T01:58:13;3.58;;;1.73;;
73940;SDS011;62294;48.554;10.202;2022-10-16T02:00:42;4.40;;;1.70;;
73940;SDS011;62294;48.554;10.202;2022-10-16T02:03:11;3.47;;;2.00;;
73940;SDS011;62294;48.554;10.202;2022-10-16T02:10:41;4.43;;;1.60;;
73940;SDS011;62294;48.554;10.202;2022-10-16T02:13:09;3.28;;;1.63;;
73940;SDS011;62294;48.554;10.202;2022-10-16T02:15:39;2.75;;;1.88;;
73940;SDS011;62294;48.554;10.202;2022-10-16T02:18:06;4.78;;;2.10;;
73940;SDS011;62294;48.554;10.202;2022-10-16T02:20:44;3.13;;;2.00;;
73940;SDS011;62294;48.554;10.202;2022-10-16T02:23:19;5.63;;;2.13;;
73940;SDS011;62294;48.554;10.202;2022-10-16T02:25:54;2.30;;;1.80;;
73940;SDS011;62294;48.554;10.202;2022-10-16T02:28:30;2.75;;;1.83;;
73940;SDS011;62294;48.554;10.202;2022-10-16T02:31:06;3.20;;;2.13;;
73940;SDS011;62294;48.554;10.202;2022-10-16T02:33:36;4.55;;;2.78;;
73940;SDS011;62294;48.554;10.202;2022-10-16T02:36:05;4.13;;;1.85;;
73940;SDS011;62294;48.554;10.202;2022-10-16T02:38:32;3.50;;;1.85;;
73940;SDS011;62294;48.554;10.202;2022-10-16T02:40:59;3.47;;;1.75;;
73940;SDS011;62294;48.554;10.202;2022-10-16T02:43:26;5.53;;;1.90;;
73940;SDS011;62294;48.554;10.202;2022-10-16T02:45:52;3.90;;;1.83;;
73940;SDS011;62294;48.554;10.202;2022-10-16T02:48:19;4.22;;;2.15;;
73940;SDS011;62294;48.554;10.202;2022-10-16T02:50:46;3.80;;;2.05;;
73940;SDS011;62294;48.554;10.202;2022-10-16T02:53:12;4.30;;;2.05;;
73940;SDS011;62294;48.554;10.202;2022-10-16T02:55:39;3.22;;;2.05;;
73940;SDS011;62294;48.554;10.202;2022-10-16T02:58:05;3.78;;;2.13;;
73940;SDS011;62294;48.554;10.202;2022-10-16T03:00:31;3.55;;;2.20;;
73940;SDS011;62294;48.554;10.202;2022-10-16T03:02:58;6.18;;;2.30;;
73940;SDS011;62294;48.554;10.202;2022-10-16T03:05:25;3.90;;;2.17;;
73940;SDS011;62294;48.554;10.202;2022-10-16T03:07:51;3.67;;;2.17;;
73940;SDS011;62294;48.554;10.202;2022-10-16T03:10:19;5.28;;;2.25;;
73940;SDS011;62294;48.554;10.202;2022-10-16T03:12:45;5.40;;;2.50;;
73940;SDS011;62294;48.554;10.202;2022-10-16T03:15:11;3.40;;;2.22;;
73940;SDS011;62294;48.554;10.202;2022-10-16T03:17:38;3.22;;;2.17;;
73940;SDS011;62294;48.554;10.202;2022-10-16T03:20:05;3.55;;;2.28;;
73940;SDS011;62294;48.554;10.202;2022-10-16T03:22:31;5.07;;;2.33;;
73940;SDS011;62294;48.554;10.202;2022-10-16T03:24:58;5.20;;;2.30;;
73940;SDS011;62294;48.554;10.202;2022-10-16T03:27:24;2.88;;;2.00;;
73940;SDS011;62294;48.554;10.202;2022-10-16T03:29:51;2.10;;;1.80;;
73940;SDS011;62294;48.554;10.202;2022-10-16T03:32:18;3.25;;;2.08;;
73940;SDS011;62294;48.554;10.202;2022-10-16T03:34:46;3.50;;;2.20;;
73940;SDS011;62294;48.554;10.202;2022-10-16T03:37:12;2.65;;;2.08;;
73940;SDS011;62294;48.554;10.202;2022-10-16T03:39:39;3.58;;;2.20;;
73940;SDS011;62294;48.554;10.202;2022-10-16T03:42:05;3.03;;;2.20;;
73940;SDS011;62294;48.554;10.202;2022-10-16T03:44:31;3.10;;;2.13;;
73940;SDS011;62294;48.554;10.202;2022-10-16T03:46:58;3.35;;;2.20;;
73940;SDS011;62294;48.554;10.202;2022-10-16T03:49:25;4.38;;;2.33;;
73940;SDS011;62294;48.554;10.202;2022-10-16T03:51:51;3.75;;;2.10;;
73940;SDS011;62294;48.554;10.202;2022-10-16T03:54:18;3.67;;;2.05;;
73940;SDS011;62294;48.554;10.202;2022-10-16T03:56:44;3.40;;;2.20;;
73940;SDS011;62294;48.554;10.202;2022-10-16T03:59:11;4.07;;;2.58;;
73940;SDS011;62294;48.554;10.202;2022-10-16T04:01:37;3.20;;;2.30;;
73940;SDS011;62294;48.554;10.202;2022-10-16T04:04:04;3.35;;;2.45;;
73940;SDS011;62294;48.554;10.202;2022-10-16T04:06:31;2.85;;;2.13;;
73940;SDS011;62294;48.554;10.202;2022-10-16T04:08:57;3.95;;;2.30;;
73940;SDS011;62294;48.554;10.202;2022-10-16T04:11:23;3.03;;;1.80;;
73940;SDS011;62294;48.554;10.202;2022-10-16T04:13:50;2.58;;;1.83;;
73940;SDS011;62294;48.554;10.202;2022-10-16T04:16:16;3.22;;;2.15;;
73940;SDS011;62294;48.554;10.202;2022-10-16T04:18:43;3.63;;;1.95;;
73940;SDS011;62294;48.554;10.202;2022-10-16T04:21:10;2.85;;;1.90;;
73940;SDS011;62294;48.554;10.202;2022-10-16T04:23:36;3.05;;;1.80;;
73940;SDS011;62294;48.554;10.202;2022-10-16T04:26:02;2.88;;;1.95;;
73940;SDS011;62294;48.554;10.202;2022-10-16T04:28:29;3.45;;;1.90;;
73940;SDS011;62294;48.554;10.202;2022-10-16T04:30:56;4.75;;;2.28;;
73940;SDS011;62294;48.554;10.202;2022-10-16T04:33:22;5.28;;;2.35;;
73940;SDS011;62294;48.554;10.202;2022-10-16T04:35:55;5.32;;;2.25;;
73940;SDS011;62294;48.554;10.202;2022-10-16T04:38:22;2.97;;;2.03;;
73940;SDS011;62294;48.554;10.202;2022-10-16T04:40:48;3.15;;;2.22;;
73940;SDS011;62294;48.554;10.202;2022-10-16T04:43:15;5.80;;;2.35;;
73940;SDS011;62294;48.554;10.202;2022-10-16T04:45:42;3.38;;;2.13;;
73940;SDS011;62294;48.554;10.202;2022-10-16T04:48:08;3.92;;;2.28;;
73940;SDS011;62294;48.554;10.202;2022-10-16T04:50:35;3.85;;;2.30;;
73940;SDS011;62294;48.554;10.202;2022-10-16T04:53:02;6.50;;;2.50;;
73940;SDS011;62294;48.554;10.202;2022-10-16T04:55:28;3.40;;;2.35;;
73940;SDS011;62294;48.554;10.202;2022-10-16T04:57:56;4.63;;;2.38;;
73940;SDS011;62294;48.554;10.202;2022-10-16T05:00:22;5.68;;;2.10;;
73940;SDS011;62294;48.554;10.202;2022-10-16T05:02:51;3.05;;;2.22;;
73940;SDS011;62294;48.554;10.202;2022-10-16T05:05:18;3.05;;;1.95;;
73940;SDS011;62294;48.554;10.202;2022-10-16T05:07:47;4.45;;;2.50;;
73940;SDS011;62294;48.554;10.202;2022-10-16T05:10:15;4.07;;;2.10;;
73940;SDS011;62294;48.554;10.202;2022-10-16T05:12:42;3.88;;;2.35;;
73940;SDS011;62294;48.554;10.202;2022-10-16T05:15:09;2.78;;;2.00;;
73940;SDS011;62294;48.554;10.202;2022-10-16T05:17:35;3.03;;;2.00;;
73940;SDS011;62294;48.554;10.202;2022-10-16T05:20:09;4.00;;;1.83;;
73940;SDS011;62294;48.554;10.202;2022-10-16T05:22:36;2.83;;;1.90;;
73940;SDS011;62294;48.554;10.202;2022-10-16T05:25:03;3.58;;;2.40;;
73940;SDS011;62294;48.554;10.202;2022-10-16T05:27:30;3.45;;;1.98;;
73940;SDS011;62294;48.554;10.202;2022-10-16T05:29:56;3.70;;;1.85;;
73940;SDS011;62294;48.554;10.202;2022-10-16T05:32:23;4.63;;;2.30;;
73940;SDS011;62294;48.554;10.202;2022-10-16T05:34:50;2.25;;;2.00;;
73940;SDS011;62294;48.554;10.202;2022-10-16T05:37:16;2.80;;;2.22;;
73940;SDS011;62294;48.554;10.202;2022-10-16T05:39:43;5.05;;;2.22;;
73940;SDS011;62294;48.554;10.202;2022-10-16T05:42:09;4.00;;;2.40;;
73940;SDS011;62294;48.554;10.202;2022-10-16T05:44:36;3.22;;;2.15;;
73940;SDS011;62294;48.554;10.202;2022-10-16T05:47:03;3.90;;;2.30;;
73940;SDS011;62294;48.554;10.202;2022-10-16T05:49:29;3.00;;;1.90;;
73940;SDS011;62294;48.554;10.202;2022-10-16T05:51:55;4.22;;;2.00;;
73940;SDS011;62294;48.554;10.202;2022-10-16T05:54:22;5.35;;;2.28;;
73940;SDS011;62294;48.554;10.202;2022-10-16T05:56:49;4.07;;;2.55;;
73940;SDS011;62294;48.554;10.202;2022-10-16T05:59:16;3.15;;;2.17;;
73940;SDS011;62294;48.554;10.202;2022-10-16T06:01:43;4.00;;;2.33;;
73940;SDS011;62294;48.554;10.202;2022-10-16T06:04:09;3.50;;;2.53;;
73940;SDS011;62294;48.554;10.202;2022-10-16T06:06:36;3.58;;;2.67;;
73940;SDS011;62294;48.554;10.202;2022-10-16T06:09:03;4.45;;;3.15;;
73940;SDS011;62294;48.554;10.202;2022-10-16T06:11:31;3.95;;;2.88;;
73940;SDS011;62294;48.554;10.202;2022-10-16T06:13:58;5.00;;;3.30;;
73940;SDS011;62294;48.554;10.202;2022-10-16T06:16:28;5.88;;;2.80;;
73940;SDS011;62294;48.554;10.202;2022-10-16T06:18:56;7.20;;;3.00;;
73940;SDS011;62294;48.554;10.202;2022-10-16T06:21:23;4.70;;;3.10;;
73940;SDS011;62294;48.554;10.202;2022-10-16T06:23:51;3.95;;;2.65;;
73940;SDS011;62294;48.554;10.202;2022-10-16T06:26:19;3.85;;;2.40;;
73940;SDS011;62294;48.554;10.202;2022-10-16T06:28:47;5.55;;;2.90;;
73940;SDS011;62294;48.554;10.202;2022-10-16T06:31:14;3.92;;;2.42;;
73940;SDS011;62294;48.554;10.202;2022-10-16T06:33:41;2.78;;;2.03;;
73940;SDS011;62294;48.554;10.202;2022-10-16T06:36:09;3.25;;;2.30;;
73940;SDS011;62294;48.554;10.202;2022-10-16T06:38:40;5.07;;;3.67;;
73940;SDS011;62294;48.554;10.202;2022-10-16T06:41:09;6.70;;;4.40;;
73940;SDS011;62294;48.554;10.202;2022-10-16T06:43:37;4.93;;;3.47;;
73940;SDS011;62294;48.554;10.202;2022-10-16T06:46:05;3.55;;;2.75;;
73940;SDS011;62294;48.554;10.202;2022-10-16T06:48:34;3.15;;;2.58;;
73940;SDS011;62294;48.554;10.202;2022-10-16T06:51:01;3.92;;;2.67;;
73940;SDS011;62294;48.554;10.202;2022-10-16T06:53:34;4.15;;;2.72;;
73940;SDS011;62294;48.554;10.202;2022-10-16T06:58:48;4.03;;;2.70;;
73940;SDS011;62294;48.554;10.202;2022-10-16T07:01:17;3.35;;;2.08;;
73940;SDS011;62294;48.554;10.202;2022-10-16T07:03:44;7.78;;;2.65;;
73940;SDS011;62294;48.554;10.202;2022-10-16T07:06:13;2.90;;;2.00;;
73940;SDS011;62294;48.554;10.202;2022-10-16T07:08:42;4.82;;;3.13;;
73940;SDS011;62294;48.554;10.202;2022-10-16T07:11:10;4.18;;;2.50;;
73940;SDS011;62294;48.554;10.202;2022-10-16T07:13:39;3.50;;;2.53;;
73940;SDS011;62294;48.554;10.202;2022-10-16T07:16:08;3.53;;;2.15;;
73940;SDS011;62294;48.554;10.202;2022-10-16T07:18:37;4.47;;;2.72;;
73940;SDS011;62294;48.554;10.202;2022-10-16T07:21:07;3.20;;;2.33;;
73940;SDS011;62294;48.554;10.202;2022-10-16T07:23:38;3.70;;;2.40;;
73940;SDS011;62294;48.554;10.202;2022-10-16T07:26:05;4.13;;;2.47;;
73940;SDS011;62294;48.554;10.202;2022-10-16T07:28:32;3.78;;;2.60;;
73940;SDS011;62294;48.554;10.202;2022-10-16T07:31:00;4.68;;;2.80;;
73940;SDS011;62294;48.554;10.202;2022-10-16T07:33:31;4.40;;;2.60;;
73940;SDS011;62294;48.554;10.202;2022-10-16T07:35:58;8.02;;;2.97;;
73940;SDS011;62294;48.554;10.202;2022-10-16T07:38:24;3.67;;;2.30;;
73940;SDS011;62294;48.554;10.202;2022-10-16T07:41:00;4.53;;;2.53;;
73940;SDS011;62294;48.554;10.202;2022-10-16T07:43:35;3.78;;;2.30;;
73940;SDS011;62294;48.554;10.202;2022-10-16T07:46:02;3.42;;;2.10;;
73940;SDS011;62294;48.554;10.202;2022-10-16T07:48:32;5.60;;;2.85;;
73940;SDS011;62294;48.554;10.202;2022-10-16T07:51:00;5.18;;;2.53;;
73940;SDS011;62294;48.554;10.202;2022-10-16T07:53:28;4.05;;;2.55;;
73940;SDS011;62294;48.554;10.202;2022-10-16T07:55:58;3.88;;;3.00;;
73940;SDS011;62294;48.554;10.202;2022-10-16T07:58:26;4.30;;;2.55;;
73940;SDS011;62294;48.554;10.202;2022-10-16T08:00:54;5.18;;;2.35;;
73940;SDS011;62294;48.554;10.202;2022-10-16T08:03:21;5.15;;;2.55;;
73940;SDS011;62294;48.554;10.202;2022-10-16T08:05:48;3.47;;;2.30;;
73940;SDS011;62294;48.554;10.202;2022-10-16T08:08:18;3.47;;;2.40;;
73940;SDS011;62294;48.554;10.202;2022-10-16T08:10:46;4.18;;;2.80;;
73940;SDS011;62294;48.554;10.202;2022-10-16T08:13:12;3.35;;;2.35;;
73940;SDS011;62294;48.554;10.202;2022-10-16T08:15:41;3.75;;;2.47;;
73940;SDS011;62294;48.554;10.202;2022-10-16T08:18:09;2.70;;;2.03;;
73940;SDS011;62294;48.554;10.202;2022-10-16T08:20:37;6.90;;;2.67;;
73940;SDS011;62294;48.554;10.202;2022-10-16T08:23:04;4.15;;;2.67;;
73940;SDS011;62294;48.554;10.202;2022-10-16T08:25:30;2.80;;;2.08;;
73940;SDS011;62294;48.554;10.202;2022-10-16T08:27:57;2.80;;;2.22;;
73940;SDS011;62294;48.554;10.202;2022-10-16T08:30:23;4.50;;;2.55;;
73940;SDS011;62294;48.554;10.202;2022-10-16T08:32:51;2.95;;;2.50;;
73940;SDS011;62294;48.554;10.202;2022-10-16T08:35:17;3.30;;;2.25;;
73940;SDS011;62294;48.554;10.202;2022-10-16T08:37:43;3.60;;;2.42;;
73940;SDS011;62294;48.554;10.202;2022-10-16T08:40:16;3.92;;;2.50;;
73940;SDS011;62294;48.554;10.202;2022-10-16T08:48:23;5.00;;;2.60;;
73940;SDS011;62294;48.554;10.202;2022-10-16T08:50:56;3.95;;;2.63;;
73940;SDS011;62294;48.554;10.202;2022-10-16T08:53:28;4.90;;;2.65;;
73940;SDS011;62294;48.554;10.202;2022-10-16T08:56:00;3.42;;;2.20;;
73940;SDS011;62294;48.554;10.202;2022-10-16T08:58:27;5.38;;;2.80;;
73940;SDS011;62294;48.554;10.202;2022-10-16T09:00:56;5.55;;;2.70;;
73940;SDS011;62294;48.554;10.202;2022-10-16T09:09:24;4.45;;;2.72;;
73940;SDS011;62294;48.554;10.202;2022-10-16T09:17:48;4.45;;;2.45;;
73940;SDS011;62294;48.554;10.202;2022-10-16T09:25:46;3.83;;;2.47;;
73940;SDS011;62294;48.554;10.202;2022-10-16T09:28:16;3.33;;;2.70;;
73940;SDS011;62294;48.554;10.202;2022-10-16T09:30:44;3.80;;;2.75;;
73940;SDS011;62294;48.554;10.202;2022-10-16T09:33:12;3.88;;;2.55;;
73940;SDS011;62294;48.554;10.202;2022-10-16T09:35:47;5.28;;;2.63;;
73940;SDS011;62294;48.554;10.202;2022-10-16T09:38:24;6.55;;;3.53;;
73940;SDS011;62294;48.554;10.202;2022-10-16T09:40:52;6.93;;;4.25;;
73940;SDS011;62294;48.554;10.202;2022-10-16T09:43:34;5.40;;;3.47;;
73940;SDS011;62294;48.554;10.202;2022-10-16T09:49:00;5.85;;;2.92;;
73940;SDS011;62294;48.554;10.202;2022-10-16T09:51:29;6.35;;;3.00;;
73940;SDS011;62294;48.554;10.202;2022-10-16T09:54:13;3.70;;;3.08;;
73940;SDS011;62294;48.554;10.202;2022-10-16T09:56:41;5.90;;;3.65;;
73940;SDS011;62294;48.554;10.202;2022-10-16T09:59:13;5.18;;;2.70;;
73940;SDS011;62294;48.554;10.202;2022-10-16T10:01:43;4.30;;;2.50;;
73940;SDS011;62294;48.554;10.202;2022-10-16T10:04:10;5.60;;;3.15;;
73940;SDS011;62294;48.554;10.202;2022-10-16T10:09:17;9.55;;;5.72;;
73940;SDS011;62294;48.554;10.202;2022-10-16T10:14:22;4.07;;;2.60;;
73940;SDS011;62294;48.554;10.202;2022-10-16T10:16:51;4.45;;;2.40;;
73940;SDS011;62294;48.554;10.202;2022-10-16T10:19:27;4.05;;;2.30;;
73940;SDS011;62294;48.554;10.202;2022-10-16T10:21:58;3.95;;;2.70;;
73940;SDS011;62294;48.554;10.202;2022-10-16T10:24:24;4.18;;;2.50;;
73940;SDS011;62294;48.554;10.202;2022-10-16T10:26:54;5.63;;;3.20;;
73940;SDS011;62294;48.554;10.202;2022-10-16T10:30:13;4.85;;;2.88;;
73940;SDS011;62294;48.554;10.202;2022-10-16T10:35:32;4.55;;;2.67;;
73940;SDS011;62294;48.554;10.202;2022-10-16T10:40:51;5.07;;;2.22;;
73940;SDS011;62294;48.554;10.202;2022-10-16T10:43:29;4.25;;;2.22;;
73940;SDS011;62294;48.554;10.202;2022-10-16T10:46:09;4.97;;;2.40;;
73940;SDS011;62294;48.554;10.202;2022-10-16T10:54:23;3.65;;;2.20;;
73940;SDS011;62294;48.554;10.202;2022-10-16T10:57:09;5.63;;;2.35;;
73940;SDS011;62294;48.554;10.202;2022-10-16T11:08:08;5.77;;;2.37;;
73940;SDS011;62294;48.554;10.202;2022-10-16T11:10:58;6.00;;;2.20;;
73940;SDS011;62294;48.554;10.202;2022-10-16T11:16:11;4.53;;;2.70;;
73940;SDS011;62294;48.554;10.202;2022-10-16T11:21:18;5.80;;;2.58;;
73940;SDS011;62294;48.554;10.202;2022-10-16T11:26:23;4.43;;;2.30;;
73940;SDS011;62294;48.554;10.202;2022-10-16T11:28:54;2.63;;;1.80;;
73940;SDS011;62294;48.554;10.202;2022-10-16T11:31:29;4.75;;;2.20;;
73940;SDS011;62294;48.554;10.202;2022-10-16T11:34:06;4.82;;;2.03;;
73940;SDS011;62294;48.554;10.202;2022-10-16T11:36:49;3.78;;;1.90;;
73940;SDS011;62294;48.554;10.202;2022-10-16T11:39:26;3.72;;;1.98;;
73940;SDS011;62294;48.554;10.202;2022-10-16T11:44:59;2.53;;;1.92;;
73940;SDS011;62294;48.554;10.202;2022-10-16T11:47:38;3.05;;;1.80;;
73940;SDS011;62294;48.554;10.202;2022-10-16T11:50:31;2.72;;;2.05;;
73940;SDS011;62294;48.554;10.202;2022-10-16T11:53:04;2.50;;;1.77;;
73940;SDS011;62294;48.554;10.202;2022-10-16T11:55:45;3.35;;;1.80;;
73940;SDS011;62294;48.554;10.202;2022-10-16T11:58:18;3.55;;;1.95;;
73940;SDS011;62294;48.554;10.202;2022-10-16T12:01:01;2.65;;;1.80;;
73940;SDS011;62294;48.554;10.202;2022-10-16T12:09:01;2.40;;;1.77;;
73940;SDS011;62294;48.554;10.202;2022-10-16T12:11:37;5.40;;;2.35;;
73940;SDS011;62294;48.554;10.202;2022-10-16T12:14:06;5.20;;;2.30;;
73940;SDS011;62294;48.554;10.202;2022-10-16T12:20:00;3.63;;;1.50;;
73940;SDS011;62294;48.554;10.202;2022-10-16T12:22:47;2.40;;;1.63;;
73940;SDS011;62294;48.554;10.202;2022-10-16T12:30:32;3.55;;;1.58;;
73940;SDS011;62294;48.554;10.202;2022-10-16T12:33:05;2.45;;;1.90;;
73940;SDS011;62294;48.554;10.202;2022-10-16T12:35:45;4.15;;;1.75;;
73940;SDS011;62294;48.554;10.202;2022-10-16T12:38:15;2.08;;;1.58;;
73940;SDS011;62294;48.554;10.202;2022-10-16T12:40:44;2.92;;;1.60;;
73940;SDS011;62294;48.554;10.202;2022-10-16T12:43:26;3.03;;;2.20;;
73940;SDS011;62294;48.554;10.202;2022-10-16T12:45:58;3.63;;;1.92;;
73940;SDS011;62294;48.554;10.202;2022-10-16T12:48:46;3.95;;;1.65;;
73940;SDS011;62294;48.554;10.202;2022-10-16T12:53:59;2.05;;;1.63;;
73940;SDS011;62294;48.554;10.202;2022-10-16T12:59:38;3.97;;;1.25;;
73940;SDS011;62294;48.554;10.202;2022-10-16T13:23:06;1.90;;;1.42;;
73940;SDS011;62294;48.554;10.202;2022-10-16T13:28:16;2.63;;;1.60;;
73940;SDS011;62294;48.554;10.202;2022-10-16T13:30:55;3.50;;;1.30;;
73940;SDS011;62294;48.554;10.202;2022-10-16T13:35:58;1.50;;;1.20;;
73940;SDS011;62294;48.554;10.202;2022-10-16T13:38:26;2.15;;;1.50;;
73940;SDS011;62294;48.554;10.202;2022-10-16T13:41:02;3.63;;;1.65;;
73940;SDS011;62294;48.554;10.202;2022-10-16T13:43:38;2.80;;;1.50;;
73940;SDS011;62294;48.554;10.202;2022-10-16T13:46:20;1.70;;;1.30;;
73940;SDS011;62294;48.554;10.202;2022-10-16T13:49:02;3.80;;;1.60;;
73940;SDS011;62294;48.554;10.202;2022-10-16T13:51:30;2.33;;;1.58;;
73940;SDS011;62294;48.554;10.202;2022-10-16T13:53:59;3.58;;;1.33;;
73940;SDS011;62294;48.554;10.202;2022-10-16T13:56:27;2.03;;;1.23;;
73940;SDS011;62294;48.554;10.202;2022-10-16T13:59:00;2.22;;;1.45;;
73940;SDS011;62294;48.554;10.202;2022-10-16T14:01:40;3.35;;;1.30;;
73940;SDS011;62294;48.554;10.202;2022-10-16T14:04:09;3.92;;;1.50;;
73940;SDS011;62294;48.554;10.202;2022-10-16T14:06:46;1.73;;;1.35;;
73940;SDS011;62294;48.554;10.202;2022-10-16T14:09:25;2.90;;;1.60;;
73940;SDS011;62294;48.554;10.202;2022-10-16T14:11:56;3.28;;;1.35;;
73940;SDS011;62294;48.554;10.202;2022-10-16T14:14:34;4.50;;;1.55;;
73940;SDS011;62294;48.554;10.202;2022-10-16T14:17:42;1.85;;;1.50;;
73940;SDS011;62294;48.554;10.202;2022-10-16T14:20:04;1.90;;;1.40;;
73940;SDS011;62294;48.554;10.202;2022-10-16T14:22:33;6.03;;;1.80;;
73940;SDS011;62294;48.554;10.202;2022-10-16T14:27:46;3.72;;;1.70;;
73940;SDS011;62294;48.554;10.202;2022-10-16T14:30:33;3.00;;;1.52;;
73940;SDS011;62294;48.554;10.202;2022-10-16T14:33:05;2.65;;;1.60;;
73940;SDS011;62294;48.554;10.202;2022-10-16T14:35:46;4.95;;;1.60;;
73940;SDS011;62294;48.554;10.202;2022-10-16T14:38:19;3.13;;;1.45;;
73940;SDS011;62294;48.554;10.202;2022-10-16T14:43:17;2.75;;;1.55;;
73940;SDS011;62294;48.554;10.202;2022-10-16T14:45:52;2.10;;;1.35;;
73940;SDS011;62294;48.554;10.202;2022-10-16T14:48:22;4.10;;;1.83;;
73940;SDS011;62294;48.554;10.202;2022-10-16T14:50:50;5.22;;;1.95;;
73940;SDS011;62294;48.554;10.202;2022-10-16T14:53:16;2.05;;;1.80;;
73940;SDS011;62294;48.554;10.202;2022-10-16T14:55:43;1.88;;;1.45;;
73940;SDS011;62294;48.554;10.202;2022-10-16T14:58:15;3.78;;;1.75;;
73940;SDS011;62294;48.554;10.202;2022-10-16T15:00:44;4.88;;;1.80;;
73940;SDS011;62294;48.554;10.202;2022-10-16T15:03:11;4.78;;;2.00;;
73940;SDS011;62294;48.554;10.202;2022-10-16T15:05:37;4.05;;;1.85;;
73940;SDS011;62294;48.554;10.202;2022-10-16T15:08:04;3.85;;;1.60;;
73940;SDS011;62294;48.554;10.202;2022-10-16T15:10:31;4.60;;;1.95;;
73940;SDS011;62294;48.554;10.202;2022-10-16T15:13:03;8.55;;;2.35;;
73940;SDS011;62294;48.554;10.202;2022-10-16T15:15:37;5.95;;;2.20;;
73940;SDS011;62294;48.554;10.202;2022-10-16T15:18:17;3.58;;;1.70;;
73940;SDS011;62294;48.554;10.202;2022-10-16T15:20:49;5.47;;;2.33;;
73940;SDS011;62294;48.554;10.202;2022-10-16T15:23:18;3.35;;;1.55;;
73940;SDS011;62294;48.554;10.202;2022-10-16T15:25:47;6.32;;;2.47;;
73940;SDS011;62294;48.554;10.202;2022-10-16T15:28:18;4.55;;;1.73;;
73940;SDS011;62294;48.554;10.202;2022-10-16T15:30:46;3.55;;;2.03;;
73940;SDS011;62294;48.554;10.202;2022-10-16T15:33:15;4.70;;;1.80;;
73940;SDS011;62294;48.554;10.202;2022-10-16T15:35:47;2.97;;;1.65;;
73940;SDS011;62294;48.554;10.202;2022-10-16T15:38:15;3.28;;;1.50;;
73940;SDS011;62294;48.554;10.202;2022-10-16T15:40:43;4.18;;;1.80;;
73940;SDS011;62294;48.554;10.202;2022-10-16T15:43:10;4.88;;;1.80;;
73940;SDS011;62294;48.554;10.202;2022-10-16T15:45:37;6.57;;;2.00;;
73940;SDS011;62294;48.554;10.202;2022-10-16T15:48:04;7.65;;;2.25;;
73940;SDS011;62294;48.554;10.202;2022-10-16T15:50:31;6.55;;;1.55;;
73940;SDS011;62294;48.554;10.202;2022-10-16T15:52:58;8.98;;;1.92;;
73940;SDS011;62294;48.554;10.202;2022-10-16T15:55:25;5.75;;;1.95;;
73940;SDS011;62294;48.554;10.202;2022-10-16T15:57:51;3.83;;;2.30;;
73940;SDS011;62294;48.554;10.202;2022-10-16T16:00:18;8.57;;;2.40;;
73940;SDS011;62294;48.554;10.202;2022-10-16T16:02:52;5.75;;;2.20;;
73940;SDS011;62294;48.554;10.202;2022-10-16T16:05:20;6.75;;;2.13;;
73940;SDS011;62294;48.554;10.202;2022-10-16T16:07:47;6.70;;;2.40;;
73940;SDS011;62294;48.554;10.202;2022-10-16T16:10:14;5.72;;;2.45;;
73940;SDS011;62294;48.554;10.202;2022-10-16T16:12:40;6.15;;;2.42;;
73940;SDS011;62294;48.554;10.202;2022-10-16T16:15:07;5.32;;;2.65;;
73940;SDS011;62294;48.554;10.202;2022-10-16T16:17:35;6.68;;;2.65;;
73940;SDS011;62294;48.554;10.202;2022-10-16T16:20:03;8.07;;;2.60;;
73940;SDS011;62294;48.554;10.202;2022-10-16T16:22:31;5.88;;;2.10;;
73940;SDS011;62294;48.554;10.202;2022-10-16T16:24:57;5.93;;;2.03;;
73940;SDS011;62294;48.554;10.202;2022-10-16T16:27:23;8.00;;;2.95;;
73940;SDS011;62294;48.554;10.202;2022-10-16T16:29:52;9.55;;;3.00;;
73940;SDS011;62294;48.554;10.202;2022-10-16T16:32:19;8.48;;;3.10;;
73940;SDS011;62294;48.554;10.202;2022-10-16T16:34:45;7.47;;;3.10;;
73940;SDS011;62294;48.554;10.202;2022-10-16T16:37:12;6.90;;;2.92;;
73940;SDS011;62294;48.554;10.202;2022-10-16T16:39:39;6.55;;;2.28;;
73940;SDS011;62294;48.554;10.202;2022-10-16T16:42:06;5.15;;;2.30;;
73940;SDS011;62294;48.554;10.202;2022-10-16T16:44:33;2.50;;;1.80;;
73940;SDS011;62294;48.554;10.202;2022-10-16T16:47:02;4.78;;;2.22;;
73940;SDS011;62294;48.554;10.202;2022-10-16T16:49:29;5.22;;;1.92;;
73940;SDS011;62294;48.554;10.202;2022-10-16T16:51:56;6.10;;;2.42;;
73940;SDS011;62294;48.554;10.202;2022-10-16T16:54:23;4.72;;;1.70;;
73940;SDS011;62294;48.554;10.202;2022-10-16T16:56:49;4.35;;;1.75;;